Time;durP1;ratioP1;P1;durP2;ratioP2;P2;SDS_P1;SDS_P2;PMS_P1;PMS_P2;Temp;Humidity;BMP_temperature;BMP_pressure;BME280_temperature;BME280_humidity;BME280_pressure;Samples;Min_cycle;Max_cycle;Signal;HPM_P1;HPM_P2
2022/06/20 00:00:09;;;;;;;2.67;1.90;;;;;;;;;;5048458;28;20377;-58
2022/06/20 00:02:37;;;;;;;3.30;1.50;;;;;;;;;;5047850;28;20132;-56
2022/06/20 00:05:04;;;;;;;3.05;1.65;;;;;;;;;;5073676;28;20044;-57
2022/06/20 00:07:30;;;;;;;3.45;1.70;;;;;;;;;;5066268;28;20523;-57
2022/06/20 00:09:56;;;;;;;4.47;1.80;;;;;;;;;;5067731;28;20421;-57
2022/06/20 00:12:25;;;;;;;2.83;1.42;;;;;;;;;;5067539;28;20020;-57
2022/06/20 00:14:59;;;;;;;1.67;1.40;;;;;;;;;;5066700;28;20563;-57
2022/06/20 00:17:25;;;;;;;1.95;1.50;;;;;;;;;;5067034;28;20024;-57
2022/06/20 00:19:51;;;;;;;2.47;1.52;;;;;;;;;;5066990;28;20032;-57
2022/06/20 00:22:18;;;;;;;2.33;1.38;;;;;;;;;;5066504;28;20384;-57
2022/06/20 00:24:44;;;;;;;1.45;1.05;;;;;;;;;;5066797;28;20040;-57
2022/06/20 00:27:10;;;;;;;2.55;1.17;;;;;;;;;;5067230;28;20021;-56
2022/06/20 00:29:37;;;;;;;3.08;1.15;;;;;;;;;;5057078;28;20044;-57
2022/06/20 00:32:03;;;;;;;2.72;1.30;;;;;;;;;;5047231;28;20061;-56
2022/06/20 00:34:29;;;;;;;1.20;1.10;;;;;;;;;;5046782;28;20064;-57
2022/06/20 00:36:56;;;;;;;2.20;1.40;;;;;;;;;;5047441;28;20032;-57
2022/06/20 00:39:22;;;;;;;2.83;1.20;;;;;;;;;;5046806;28;20025;-57
2022/06/20 00:41:48;;;;;;;4.15;1.40;;;;;;;;;;5046884;28;20732;-57
2022/06/20 00:44:17;;;;;;;2.28;1.38;;;;;;;;;;5047750;28;20044;-57
2022/06/20 00:46:45;;;;;;;1.63;1.40;;;;;;;;;;5046760;28;20037;-57
2022/06/20 00:49:19;;;;;;;2.03;1.30;;;;;;;;;;5046729;28;20036;-57
2022/06/20 00:51:52;;;;;;;1.38;1.20;;;;;;;;;;5046901;28;20053;-58
2022/06/20 00:54:33;;;;;;;3.17;1.65;;;;;;;;;;5046555;28;20029;-56
2022/06/20 00:57:01;;;;;;;2.38;1.08;;;;;;;;;;5046873;28;20055;-57
2022/06/20 00:59:32;;;;;;;2.30;1.40;;;;;;;;;;5058396;28;20664;-57
2022/06/20 01:02:00;;;;;;;1.92;1.50;;;;;;;;;;5066563;28;20056;-57
2022/06/20 01:04:46;;;;;;;2.70;1.60;;;;;;;;;;5066461;28;20020;-57
2022/06/20 01:07:16;;;;;;;1.98;1.55;;;;;;;;;;5066338;28;20036;-57
2022/06/20 01:09:45;;;;;;;2.70;1.55;;;;;;;;;;5066009;28;20020;-56
2022/06/20 01:12:14;;;;;;;3.35;1.30;;;;;;;;;;5066721;28;20679;-54
2022/06/20 01:14:40;;;;;;;5.15;1.70;;;;;;;;;;5049581;28;20108;-57
2022/06/20 01:17:27;;;;;;;4.40;1.95;;;;;;;;;;5046983;28;20040;-57
2022/06/20 01:19:57;;;;;;;3.03;1.50;;;;;;;;;;5046103;28;20044;-56
2022/06/20 01:22:29;;;;;;;7.22;1.83;;;;;;;;;;5061390;28;20040;-57
2022/06/20 01:25:05;;;;;;;5.03;1.60;;;;;;;;;;5066415;28;20028;-57
2022/06/20 01:27:37;;;;;;;2.50;1.20;;;;;;;;;;5065238;28;20073;-57
2022/06/20 01:30:03;;;;;;;3.20;1.48;;;;;;;;;;5064945;28;20048;-57
2022/06/20 01:32:30;;;;;;;2.30;1.45;;;;;;;;;;5064615;28;21172;-57
2022/06/20 01:34:57;;;;;;;1.58;1.20;;;;;;;;;;5064734;28;20020;-56
2022/06/20 01:37:25;;;;;;;7.28;1.40;;;;;;;;;;5066370;28;20496;-56
2022/06/20 01:39:52;;;;;;;3.00;1.83;;;;;;;;;;5065807;28;20025;-57
2022/06/20 01:42:19;;;;;;;2.50;1.45;;;;;;;;;;5060196;28;20025;-56
2022/06/20 01:44:49;;;;;;;3.22;1.77;;;;;;;;;;5046089;28;20033;-56
2022/06/20 01:47:15;;;;;;;2.65;1.52;;;;;;;;;;5045012;28;20028;-56
2022/06/20 01:49:42;;;;;;;3.90;1.95;;;;;;;;;;5045833;28;20027;-55
2022/06/20 01:52:13;;;;;;;1.98;1.45;;;;;;;;;;5046887;28;20564;-56
2022/06/20 01:54:41;;;;;;;2.35;1.30;;;;;;;;;;5046093;28;20033;-56
2022/06/20 01:57:09;;;;;;;4.55;1.52;;;;;;;;;;5046369;28;20111;-56
2022/06/20 01:59:43;;;;;;;3.72;1.67;;;;;;;;;;5045683;28;20100;-56
2022/06/20 02:02:09;;;;;;;2.08;1.50;;;;;;;;;;5053050;28;20035;-56
2022/06/20 02:04:37;;;;;;;2.47;1.50;;;;;;;;;;5066353;28;20028;-56
2022/06/20 02:07:05;;;;;;;4.28;1.60;;;;;;;;;;5064934;28;20029;-56
2022/06/20 02:09:31;;;;;;;3.10;1.20;;;;;;;;;;5065658;28;20036;-56
2022/06/20 02:11:59;;;;;;;2.38;1.38;;;;;;;;;;5065949;28;20025;-57
2022/06/20 02:14:34;;;;;;;4.70;1.40;;;;;;;;;;5065682;28;20024;-56
2022/06/20 02:17:01;;;;;;;1.50;1.27;;;;;;;;;;5065724;28;20024;-56
2022/06/20 02:19:31;;;;;;;3.25;1.50;;;;;;;;;;5065623;28;20618;-56
2022/06/20 02:22:02;;;;;;;2.22;1.80;;;;;;;;;;5064629;28;20029;-56
2022/06/20 02:24:30;;;;;;;2.28;1.60;;;;;;;;;;5065373;28;20103;-56
2022/06/20 02:27:01;;;;;;;2.88;1.58;;;;;;;;;;5065748;28;20488;-56
2022/06/20 02:29:29;;;;;;;3.00;1.35;;;;;;;;;;5065576;28;20016;-56
2022/06/20 02:31:57;;;;;;;2.78;1.70;;;;;;;;;;5065641;28;20029;-56
2022/06/20 02:34:25;;;;;;;1.70;1.35;;;;;;;;;;5065589;28;20112;-56
2022/06/20 02:36:52;;;;;;;3.85;1.70;;;;;;;;;;5064348;28;20070;-56
2022/06/20 02:39:18;;;;;;;2.22;1.58;;;;;;;;;;5067723;28;20103;-56
2022/06/20 02:41:46;;;;;;;2.53;1.50;;;;;;;;;;5067737;28;20028;-56
2022/06/20 02:44:18;;;;;;;1.80;1.30;;;;;;;;;;5068920;28;20111;-55
2022/06/20 02:46:46;;;;;;;4.10;1.90;;;;;;;;;;5068560;28;20074;-56
2022/06/20 02:49:13;;;;;;;1.70;1.02;;;;;;;;;;5069203;28;20505;-56
2022/06/20 02:51:42;;;;;;;2.38;1.55;;;;;;;;;;5069545;28;20067;-55
2022/06/20 02:54:11;;;;;;;3.08;1.48;;;;;;;;;;5069656;28;20078;-56
2022/06/20 02:56:41;;;;;;;2.40;1.27;;;;;;;;;;5060639;28;20032;-56
2022/06/20 02:59:14;;;;;;;2.13;1.50;;;;;;;;;;5047940;28;20028;-56
2022/06/20 03:01:52;;;;;;;2.10;1.30;;;;;;;;;;5049091;28;20055;-56
2022/06/20 03:04:18;;;;;;;4.55;1.88;;;;;;;;;;5067178;28;20103;-56
2022/06/20 03:06:49;;;;;;;2.97;1.20;;;;;;;;;;5067146;28;20040;-55
2022/06/20 03:09:18;;;;;;;2.20;1.42;;;;;;;;;;5067427;28;20032;-55
2022/06/20 03:11:45;;;;;;;3.83;1.75;;;;;;;;;;5066968;28;20052;-54
2022/06/20 03:14:13;;;;;;;2.72;1.50;;;;;;;;;;5067366;28;20029;-56
2022/06/20 03:16:39;;;;;;;2.78;1.50;;;;;;;;;;5065933;28;20069;-55
2022/06/20 03:19:08;;;;;;;2.25;1.20;;;;;;;;;;5067698;28;20025;-54
2022/06/20 03:21:36;;;;;;;1.52;1.30;;;;;;;;;;5066655;28;20028;-56
2022/06/20 03:24:03;;;;;;;2.33;1.30;;;;;;;;;;5067163;28;20447;-57
2022/06/20 03:26:29;;;;;;;3.75;1.55;;;;;;;;;;5067153;28;20036;-55
2022/06/20 03:28:55;;;;;;;1.40;1.20;;;;;;;;;;5067063;28;20052;-55
2022/06/20 03:31:21;;;;;;;1.70;1.15;;;;;;;;;;5062285;28;20103;-56
2022/06/20 03:33:48;;;;;;;1.60;1.45;;;;;;;;;;5046726;28;20021;-55
2022/06/20 03:36:25;;;;;;;2.45;1.33;;;;;;;;;;5046682;28;20029;-56
2022/06/20 03:38:52;;;;;;;1.20;1.10;;;;;;;;;;5048501;28;20052;-56
2022/06/20 03:41:23;;;;;;;1.00;1.00;;;;;;;;;;5066444;28;20094;-54
2022/06/20 03:44:04;;;;;;;1.63;1.30;;;;;;;;;;5066820;28;20017;-55
2022/06/20 03:46:34;;;;;;;1.15;1.05;;;;;;;;;;5066216;28;20029;-55
2022/06/20 03:49:03;;;;;;;1.20;1.00;;;;;;;;;;5066861;28;21321;-55
2022/06/20 03:51:32;;;;;;;1.05;0.98;;;;;;;;;;5065309;28;20029;-55
2022/06/20 03:54:10;;;;;;;1.45;1.27;;;;;;;;;;5065681;28;20423;-54
2022/06/20 03:56:49;;;;;;;1.40;0.90;;;;;;;;;;5066471;28;20036;-56
2022/06/20 03:59:20;;;;;;;0.82;0.82;;;;;;;;;;5051045;28;20020;-56
2022/06/20 04:01:55;;;;;;;1.30;1.10;;;;;;;;;;5046198;28;20032;-55
2022/06/20 04:04:23;;;;;;;1.42;1.08;;;;;;;;;;5046202;28;20017;-54
2022/06/20 04:06:56;;;;;;;1.73;0.70;;;;;;;;;;5046374;28;20514;-54
2022/06/20 04:12:15;;;;;;;0.63;0.63;;;;;;;;;;5045839;28;20448;-54
2022/06/20 04:14:47;;;;;;;0.80;0.80;;;;;;;;;;5045452;28;20063;-54
2022/06/20 04:20:04;;;;;;;0.80;0.80;;;;;;;;;;5046109;28;20072;-55
2022/06/20 04:22:34;;;;;;;0.50;0.50;;;;;;;;;;5045502;28;20543;-55
2022/06/20 04:25:02;;;;;;;0.68;0.60;;;;;;;;;;5045859;28;20028;-54
2022/06/20 04:27:30;;;;;;;0.90;0.63;;;;;;;;;;5045553;28;20029;-55
2022/06/20 04:30:10;;;;;;;0.73;0.63;;;;;;;;;;5045579;28;20079;-54
2022/06/20 04:32:45;;;;;;;0.50;0.50;;;;;;;;;;5045921;28;20044;-55
2022/06/20 04:35:29;;;;;;;0.60;0.60;;;;;;;;;;5045507;28;20068;-55
2022/06/20 04:37:58;;;;;;;0.85;0.68;;;;;;;;;;5045977;28;20028;-55
2022/06/20 04:40:36;;;;;;;1.30;0.73;;;;;;;;;;5051382;28;20028;-55
2022/06/20 04:43:14;;;;;;;0.55;0.50;;;;;;;;;;5064391;28;20020;-54
2022/06/20 04:45:42;;;;;;;0.88;0.65;;;;;;;;;;5065279;28;20021;-54
2022/06/20 04:48:12;;;;;;;0.70;0.60;;;;;;;;;;5065131;28;20025;-55
2022/06/20 04:50:40;;;;;;;0.40;0.40;;;;;;;;;;5065532;28;20050;-54
2022/06/20 04:53:10;;;;;;;0.50;0.50;;;;;;;;;;5065971;28;20381;-54
2022/06/20 04:55:39;;;;;;;0.40;0.40;;;;;;;;;;5054618;28;20024;-54
2022/06/20 04:58:07;;;;;;;0.60;0.60;;;;;;;;;;5044431;28;20037;-54
2022/06/20 05:00:44;;;;;;;0.40;0.40;;;;;;;;;;5044740;28;20500;-54
2022/06/20 05:03:13;;;;;;;0.50;0.50;;;;;;;;;;5045058;28;20106;-54
2022/06/20 05:05:41;;;;;;;0.40;0.40;;;;;;;;;;5045702;28;20638;-55
2022/06/20 05:08:11;;;;;;;0.80;0.63;;;;;;;;;;5045688;28;20446;-55
2022/06/20 05:10:42;;;;;;;0.32;0.32;;;;;;;;;;5057297;28;20120;-54
2022/06/20 05:13:08;;;;;;;0.52;0.52;;;;;;;;;;5065630;28;20031;-55
2022/06/20 05:15:41;;;;;;;1.98;0.50;;;;;;;;;;5064527;28;20020;-55
2022/06/20 05:18:30;;;;;;;1.35;0.47;;;;;;;;;;5065806;28;20033;-55
2022/06/20 05:21:18;;;;;;;0.60;0.60;;;;;;;;;;5061896;28;20037;-55
2022/06/20 05:23:50;;;;;;;0.60;0.60;;;;;;;;;;5064475;28;20044;-54
2022/06/20 05:26:28;;;;;;;0.47;0.47;;;;;;;;;;5044904;28;20032;-54
2022/06/20 05:28:55;;;;;;;0.88;0.50;;;;;;;;;;5044678;28;20035;-54
2022/06/20 05:31:36;;;;;;;0.55;0.55;;;;;;;;;;5044959;28;20036;-55
2022/06/20 05:34:15;;;;;;;0.50;0.50;;;;;;;;;;5044871;28;20060;-55
2022/06/20 05:36:50;;;;;;;1.65;0.70;;;;;;;;;;5044873;28;20036;-54
2022/06/20 05:39:35;;;;;;;0.52;0.50;;;;;;;;;;5044829;28;20416;-55
2022/06/20 05:42:01;;;;;;;;;;;;;;;;;;5045318;28;20373;-55
2022/06/20 05:44:28;;;;;;;0.55;0.55;;;;;;;;;;5059415;28;19908;-55
2022/06/20 05:46:57;;;;;;;0.60;0.60;;;;;;;;;;5064501;28;20052;-55
2022/06/20 05:49:49;;;;;;;0.68;0.50;;;;;;;;;;5065907;28;20072;-55
2022/06/20 05:52:23;;;;;;;2.33;0.93;;;;;;;;;;5045102;28;20413;-55
2022/06/20 05:54:54;;;;;;;0.90;0.80;;;;;;;;;;5045940;28;20037;-55
2022/06/20 05:57:22;;;;;;;0.52;0.52;;;;;;;;;;5064897;28;20131;-55
2022/06/20 05:59:54;;;;;;;0.60;0.60;;;;;;;;;;5065697;28;20619;-55
2022/06/20 06:02:21;;;;;;;0.55;0.55;;;;;;;;;;5065459;28;20029;-55
2022/06/20 06:04:57;;;;;;;0.95;0.43;;;;;;;;;;5066477;28;20120;-55
2022/06/20 06:07:42;;;;;;;1.33;0.50;;;;;;;;;;5063290;28;20404;-55
2022/06/20 06:10:11;;;;;;;0.50;0.50;;;;;;;;;;5065791;28;20029;-55
2022/06/20 06:12:40;;;;;;;0.80;0.80;;;;;;;;;;5066117;28;20033;-55
2022/06/20 06:15:12;;;;;;;0.90;0.50;;;;;;;;;;5058462;28;20492;-56
2022/06/20 06:17:41;;;;;;;0.57;0.57;;;;;;;;;;5050155;28;20031;-55
2022/06/20 06:20:27;;;;;;;0.70;0.50;;;;;;;;;;5050156;28;20135;-55
2022/06/20 06:23:00;;;;;;;0.65;0.65;;;;;;;;;;5049743;28;20025;-55
2022/06/20 06:25:37;;;;;;;0.50;0.50;;;;;;;;;;5058778;28;20030;-55
2022/06/20 06:28:05;;;;;;;0.52;0.50;;;;;;;;;;5069362;28;20037;-55
2022/06/20 06:30:40;;;;;;;1.10;0.75;;;;;;;;;;5065827;28;20499;-55
2022/06/20 06:33:09;;;;;;;0.57;0.57;;;;;;;;;;5054374;28;20037;-55
2022/06/20 06:35:44;;;;;;;0.30;0.30;;;;;;;;;;5069499;28;20029;-55
2022/06/20 06:38:14;;;;;;;0.43;0.43;;;;;;;;;;5069384;28;20035;-55
2022/06/20 06:40:51;;;;;;;0.68;0.57;;;;;;;;;;5083821;28;20031;-55
2022/06/20 06:43:21;;;;;;;0.40;0.40;;;;;;;;;;5075421;28;20029;-55
2022/06/20 06:45:49;;;;;;;0.60;0.60;;;;;;;;;;5064847;28;20081;-55
2022/06/20 06:48:21;;;;;;;0.50;0.50;;;;;;;;;;5069263;28;20024;-55
2022/06/20 06:50:53;;;;;;;0.50;0.50;;;;;;;;;;5068138;28;20503;-56
2022/06/20 06:53:49;;;;;;;1.27;0.77;;;;;;;;;;5068089;28;20035;-57
2022/06/20 06:56:36;;;;;;;1.75;0.80;;;;;;;;;;5061708;28;20040;-56
2022/06/20 06:59:09;;;;;;;0.63;0.60;;;;;;;;;;5064703;28;20565;-56
2022/06/20 07:01:40;;;;;;;1.98;0.98;;;;;;;;;;5065523;28;20028;-55
2022/06/20 07:04:16;;;;;;;1.17;0.70;;;;;;;;;;5068358;28;20028;-56
2022/06/20 07:06:51;;;;;;;1.58;0.90;;;;;;;;;;5065993;28;20036;-56
2022/06/20 07:09:24;;;;;;;1.23;1.00;;;;;;;;;;5059218;28;20040;-56
2022/06/20 07:11:59;;;;;;;1.37;1.10;;;;;;;;;;5060658;28;20047;-56
2022/06/20 07:14:25;;;;;;;1.38;1.02;;;;;;;;;;5066617;28;20510;-56
2022/06/20 07:16:53;;;;;;;2.67;0.93;;;;;;;;;;5068365;28;20085;-56
2022/06/20 07:19:21;;;;;;;1.60;1.17;;;;;;;;;;5077159;28;20103;-56
2022/06/20 07:21:47;;;;;;;0.80;0.80;;;;;;;;;;5071977;28;20101;-55
2022/06/20 07:24:16;;;;;;;0.95;0.73;;;;;;;;;;5068165;28;20024;-55
2022/06/20 07:26:51;;;;;;;0.70;0.70;;;;;;;;;;5068381;28;20036;-56
2022/06/20 07:29:20;;;;;;;0.65;0.63;;;;;;;;;;5071618;28;20028;-57
2022/06/20 07:31:49;;;;;;;1.55;1.15;;;;;;;;;;5089107;28;20505;-55
2022/06/20 07:34:49;;;;;;;1.20;1.00;;;;;;;;;;5070299;28;20021;-55
2022/06/20 07:37:21;;;;;;;2.75;1.15;;;;;;;;;;5056771;28;20510;-55
2022/06/20 07:39:51;;;;;;;1.00;0.90;;;;;;;;;;5056340;28;20404;-56
2022/06/20 07:42:22;;;;;;;0.75;0.75;;;;;;;;;;5061531;28;20021;-57
2022/06/20 07:44:59;;;;;;;1.05;0.95;;;;;;;;;;5066671;28;20490;-55
2022/06/20 07:47:31;;;;;;;1.67;0.90;;;;;;;;;;5071078;28;20028;-56
2022/06/20 07:50:00;;;;;;;2.03;1.00;;;;;;;;;;5070959;28;20596;-56
2022/06/20 07:52:31;;;;;;;1.00;1.00;;;;;;;;;;5052955;28;20048;-55
2022/06/20 07:54:59;;;;;;;1.58;0.98;;;;;;;;;;5048540;28;20037;-56
2022/06/20 07:57:34;;;;;;;1.90;1.23;;;;;;;;;;5058336;28;20027;-56
2022/06/20 08:00:04;;;;;;;1.20;1.10;;;;;;;;;;5060348;28;20129;-56
2022/06/20 08:02:36;;;;;;;1.20;0.90;;;;;;;;;;5073584;28;20036;-56
2022/06/20 08:05:04;;;;;;;1.17;1.00;;;;;;;;;;5068715;28;20635;-56
2022/06/20 08:07:43;;;;;;;1.27;1.17;;;;;;;;;;5057166;28;20036;-57
2022/06/20 08:10:14;;;;;;;1.83;0.98;;;;;;;;;;5063133;28;20055;-56
2022/06/20 08:12:49;;;;;;;0.98;0.90;;;;;;;;;;5053576;28;20025;-56
2022/06/20 08:15:22;;;;;;;1.15;1.02;;;;;;;;;;5047922;28;20040;-57
2022/06/20 08:17:48;;;;;;;1.73;0.90;;;;;;;;;;5048374;28;20392;-57
2022/06/20 08:20:16;;;;;;;1.15;0.88;;;;;;;;;;5062626;28;20032;-58
2022/06/20 08:22:49;;;;;;;2.40;1.00;;;;;;;;;;5064313;28;20105;-57
2022/06/20 08:25:19;;;;;;;4.05;1.20;;;;;;;;;;5056306;28;20039;-57
2022/06/20 08:27:47;;;;;;;1.45;1.17;;;;;;;;;;5071922;28;20032;-54
2022/06/20 08:30:15;;;;;;;0.85;0.85;;;;;;;;;;5066347;28;20036;-57
2022/06/20 08:32:46;;;;;;;1.45;1.20;;;;;;;;;;5070663;28;20033;-56
2022/06/20 08:35:19;;;;;;;1.30;1.20;;;;;;;;;;5066042;28;20051;-56
2022/06/20 08:37:55;;;;;;;2.13;1.23;;;;;;;;;;5055060;28;20025;-57
2022/06/20 08:40:21;;;;;;;1.95;1.10;;;;;;;;;;5066391;28;20083;-56
2022/06/20 08:43:06;;;;;;;1.15;1.05;;;;;;;;;;5065643;28;20530;-58
2022/06/20 08:45:34;;;;;;;1.35;1.13;;;;;;;;;;5066055;28;20044;-56
2022/06/20 08:48:20;;;;;;;1.52;1.00;;;;;;;;;;5066658;28;20523;-57
2022/06/20 08:51:06;;;;;;;1.20;1.10;;;;;;;;;;5067424;28;20492;-57
2022/06/20 08:54:03;;;;;;;1.35;1.25;;;;;;;;;;5083295;28;20147;-56
2022/06/20 08:56:47;;;;;;;2.53;1.40;;;;;;;;;;5064966;28;20044;-57
2022/06/20 08:59:33;;;;;;;1.52;1.20;;;;;;;;;;5066385;28;20453;-57
2022/06/20 09:02:10;;;;;;;1.40;1.30;;;;;;;;;;5066318;28;20024;-57
2022/06/20 09:05:14;;;;;;;2.83;1.40;;;;;;;;;;5066404;28;20380;-57
2022/06/20 09:07:52;;;;;;;2.65;1.20;;;;;;;;;;5007903;28;20056;-57
2022/06/20 09:10:20;;;;;;;1.98;1.10;;;;;;;;;;5021463;28;20538;-57
2022/06/20 09:12:46;;;;;;;1.17;1.08;;;;;;;;;;5046371;28;20024;-57
2022/06/20 09:15:17;;;;;;;2.15;1.00;;;;;;;;;;5070183;28;20036;-56
2022/06/20 09:17:43;;;;;;;2.40;1.30;;;;;;;;;;5086036;28;20081;-57
2022/06/20 09:20:15;;;;;;;1.30;1.20;;;;;;;;;;5083729;28;20024;-57
2022/06/20 09:23:01;;;;;;;3.20;1.40;;;;;;;;;;5065252;28;20562;-57
2022/06/20 09:25:33;;;;;;;1.52;1.42;;;;;;;;;;5065189;28;20034;-57
2022/06/20 09:28:12;;;;;;;2.40;1.27;;;;;;;;;;5065706;28;20051;-58
2022/06/20 09:30:41;;;;;;;1.60;1.48;;;;;;;;;;5066264;28;20090;-57
2022/06/20 09:33:13;;;;;;;2.35;1.50;;;;;;;;;;5066443;28;20051;-57
2022/06/20 09:35:51;;;;;;;1.25;1.15;;;;;;;;;;5066319;28;20029;-57
2022/06/20 09:38:23;;;;;;;1.45;1.13;;;;;;;;;;5066811;28;20512;-57
2022/06/20 09:40:58;;;;;;;1.80;1.20;;;;;;;;;;5065759;28;20492;-56
2022/06/20 09:43:43;;;;;;;2.03;1.45;;;;;;;;;;5065685;28;20357;-57
2022/06/20 09:46:12;;;;;;;2.80;1.35;;;;;;;;;;5065849;28;20024;-57
2022/06/20 09:48:58;;;;;;;1.35;1.23;;;;;;;;;;5067475;28;20082;-57
2022/06/20 09:51:32;;;;;;;2.03;1.20;;;;;;;;;;5048213;28;20427;-57
2022/06/20 09:54:03;;;;;;;1.27;1.13;;;;;;;;;;5083271;28;20036;-57
2022/06/20 09:56:48;;;;;;;3.42;1.23;;;;;;;;;;5068829;28;20032;-57
2022/06/20 09:59:14;;;;;;;2.85;1.70;;;;;;;;;;5069155;28;20024;-57
2022/06/20 10:01:46;;;;;;;2.33;1.67;;;;;;;;;;5069346;28;20032;-58
2022/06/20 10:04:18;;;;;;;1.48;1.30;;;;;;;;;;5069644;28;20024;-57
2022/06/20 10:07:04;;;;;;;3.33;1.40;;;;;;;;;;5069390;28;20407;-57
2022/06/20 10:09:38;;;;;;;2.28;1.33;;;;;;;;;;5065548;28;20094;-58
2022/06/20 10:12:05;;;;;;;2.78;1.55;;;;;;;;;;5064260;28;20105;-57
2022/06/20 10:14:51;;;;;;;2.35;1.60;;;;;;;;;;5072261;28;20071;-57
2022/06/20 10:17:37;;;;;;;1.45;1.30;;;;;;;;;;5059756;28;20044;-57
2022/06/20 10:20:14;;;;;;;1.42;1.33;;;;;;;;;;5051063;28;20124;-57
2022/06/20 10:22:44;;;;;;;1.70;1.25;;;;;;;;;;5061493;28;20024;-56
2022/06/20 10:25:14;;;;;;;1.77;1.50;;;;;;;;;;5071084;28;20031;-57
2022/06/20 10:27:42;;;;;;;1.63;1.45;;;;;;;;;;5069859;28;20029;-57
2022/06/20 10:30:14;;;;;;;1.40;1.30;;;;;;;;;;5080462;28;20028;-56
2022/06/20 10:32:40;;;;;;;1.30;1.10;;;;;;;;;;5069160;28;20032;-56
2022/06/20 10:35:17;;;;;;;1.25;0.90;;;;;;;;;;5069084;28;20397;-56
2022/06/20 10:37:49;;;;;;;1.48;1.15;;;;;;;;;;5075656;28;20035;-56
2022/06/20 10:40:24;;;;;;;2.03;1.73;;;;;;;;;;5083199;28;20077;-57
2022/06/20 10:42:55;;;;;;;2.85;1.35;;;;;;;;;;5049111;28;20047;-56
2022/06/20 10:45:44;;;;;;;1.67;1.58;;;;;;;;;;5049274;28;20021;-57
2022/06/20 10:48:28;;;;;;;2.40;1.60;;;;;;;;;;5048275;28;20095;-56
2022/06/20 10:50:55;;;;;;;;;;;;;;;;;;5069772;28;20032;-56
2022/06/20 10:53:24;;;;;;;2.10;1.60;;;;;;;;;;5067578;28;19938;-57
2022/06/20 10:55:50;;;;;;;1.30;1.20;;;;;;;;;;5058996;28;20104;-56
2022/06/20 10:58:16;;;;;;;1.02;1.00;;;;;;;;;;5051033;28;20013;-57
2022/06/20 11:00:45;;;;;;;1.10;1.00;;;;;;;;;;5079227;28;20017;-57
2022/06/20 11:03:20;;;;;;;1.48;1.02;;;;;;;;;;5068000;28;20029;-57
2022/06/20 11:05:55;;;;;;;1.88;1.27;;;;;;;;;;5065980;28;20087;-57
2022/06/20 11:08:40;;;;;;;2.05;1.35;;;;;;;;;;5069071;28;20123;-57
2022/06/20 11:11:06;;;;;;;1.27;1.17;;;;;;;;;;5071151;28;20137;-57
2022/06/20 11:13:35;;;;;;;2.75;1.60;;;;;;;;;;5081288;28;20570;-57
2022/06/20 11:16:01;;;;;;;1.50;1.40;;;;;;;;;;5080012;28;20048;-57
2022/06/20 11:18:37;;;;;;;2.10;1.10;;;;;;;;;;5063572;28;20021;-57
2022/06/20 11:21:26;;;;;;;1.77;1.30;;;;;;;;;;5066293;28;20530;-57
2022/06/20 11:24:12;;;;;;;1.33;1.08;;;;;;;;;;5061845;28;20115;-57
2022/06/20 11:26:43;;;;;;;1.30;1.20;;;;;;;;;;5053882;28;20451;-57
2022/06/20 11:29:28;;;;;;;1.48;1.05;;;;;;;;;;5067031;28;20044;-57
2022/06/20 11:32:07;;;;;;;2.92;1.17;;;;;;;;;;5065828;28;20411;-57
2022/06/20 11:34:33;;;;;;;2.25;1.13;;;;;;;;;;5066153;28;20408;-57
2022/06/20 11:37:11;;;;;;;1.30;1.10;;;;;;;;;;5066388;28;20032;-57
2022/06/20 11:39:43;;;;;;;1.73;1.08;;;;;;;;;;5066578;28;20047;-57
2022/06/20 11:42:09;;;;;;;1.60;1.17;;;;;;;;;;5065329;28;20039;-57
2022/06/20 11:44:50;;;;;;;1.20;1.10;;;;;;;;;;5065495;28;20029;-57
2022/06/20 11:47:32;;;;;;;3.03;1.38;;;;;;;;;;5066124;28;20017;-57
2022/06/20 11:50:07;;;;;;;1.98;1.40;;;;;;;;;;5064968;28;20032;-57
2022/06/20 11:52:53;;;;;;;1.20;1.10;;;;;;;;;;5065564;28;20056;-57
2022/06/20 11:55:19;;;;;;;1.55;1.10;;;;;;;;;;5064053;28;20035;-57
2022/06/20 11:57:46;;;;;;;1.90;1.42;;;;;;;;;;5065360;28;20012;-57
2022/06/20 12:00:18;;;;;;;2.35;1.50;;;;;;;;;;5057054;28;20025;-59
2022/06/20 12:02:47;;;;;;;1.67;1.30;;;;;;;;;;5051763;28;20395;-57
2022/06/20 12:05:25;;;;;;;1.52;1.33;;;;;;;;;;5066429;28;20093;-57
2022/06/20 12:07:54;;;;;;;3.20;1.42;;;;;;;;;;5079481;28;20075;-57
2022/06/20 12:10:23;;;;;;;3.25;1.17;;;;;;;;;;5057826;28;20115;-57
2022/06/20 12:12:50;;;;;;;1.73;1.23;;;;;;;;;;5065192;28;20056;-57
2022/06/20 12:15:35;;;;;;;1.13;1.00;;;;;;;;;;5065131;28;20116;-57
2022/06/20 12:18:07;;;;;;;1.75;1.00;;;;;;;;;;5065754;28;20021;-57
2022/06/20 12:23:46;;;;;;;1.33;1.00;;;;;;;;;;5065007;28;20028;-57
2022/06/20 12:26:19;;;;;;;1.48;1.10;;;;;;;;;;5060640;28;20051;-58
2022/06/20 12:28:46;;;;;;;2.03;1.10;;;;;;;;;;5058885;28;20028;-57
2022/06/20 12:31:15;;;;;;;1.25;1.00;;;;;;;;;;5060161;28;20052;-58
2022/06/20 12:33:47;;;;;;;0.70;0.70;;;;;;;;;;5065430;28;20016;-57
2022/06/20 12:36:19;;;;;;;0.77;0.75;;;;;;;;;;5064842;28;20028;-57
2022/06/20 12:38:56;;;;;;;1.25;0.90;;;;;;;;;;5046486;28;20021;-58
2022/06/20 12:41:24;;;;;;;1.10;1.05;;;;;;;;;;5061425;28;20216;-57
2022/06/20 12:44:08;;;;;;;2.17;1.30;;;;;;;;;;5064802;28;20032;-57
2022/06/20 12:46:50;;;;;;;1.08;0.77;;;;;;;;;;5063010;28;20036;-57
2022/06/20 12:49:19;;;;;;;1.00;0.90;;;;;;;;;;5063235;28;20027;-57
2022/06/20 12:52:08;;;;;;;1.00;1.00;;;;;;;;;;5064082;28;20503;-57
2022/06/20 12:54:34;;;;;;;1.55;1.10;;;;;;;;;;5060950;28;20100;-57
2022/06/20 12:57:06;;;;;;;1.45;1.17;;;;;;;;;;5061866;28;20033;-57
2022/06/20 12:59:35;;;;;;;2.25;1.33;;;;;;;;;;5064288;28;20030;-57
2022/06/20 13:02:04;;;;;;;1.63;1.20;;;;;;;;;;5064706;28;20048;-58
2022/06/20 13:04:45;;;;;;;1.83;1.50;;;;;;;;;;5056485;28;20027;-58
2022/06/20 13:07:27;;;;;;;1.10;1.00;;;;;;;;;;5064993;28;20450;-57
2022/06/20 13:10:13;;;;;;;3.35;1.30;;;;;;;;;;5064515;28;20021;-57
2022/06/20 13:13:05;;;;;;;1.20;1.10;;;;;;;;;;5060561;28;20554;-58
2022/06/20 13:15:49;;;;;;;1.48;0.98;;;;;;;;;;5061532;28;20025;-58
2022/06/20 13:18:18;;;;;;;2.65;1.10;;;;;;;;;;5064341;28;20077;-57
2022/06/20 13:20:50;;;;;;;2.20;1.05;;;;;;;;;;5062401;28;20056;-58
2022/06/20 13:23:16;;;;;;;2.20;1.52;;;;;;;;;;5053663;28;20032;-57
2022/06/20 13:25:55;;;;;;;3.60;1.38;;;;;;;;;;5053279;28;20173;-58
2022/06/20 13:28:40;;;;;;;3.08;1.58;;;;;;;;;;5064344;28;20120;-57
2022/06/20 13:31:26;;;;;;;1.63;1.38;;;;;;;;;;5060443;28;20463;-58
2022/06/20 13:34:14;;;;;;;1.85;1.33;;;;;;;;;;5056918;28;20492;-58
2022/06/20 13:36:40;;;;;;;2.13;1.40;;;;;;;;;;5062749;28;20036;-58
2022/06/20 13:39:15;;;;;;;1.58;1.13;;;;;;;;;;5064101;28;20033;-57
2022/06/20 13:41:44;;;;;;;1.23;1.02;;;;;;;;;;5064474;28;20029;-58
2022/06/20 13:44:13;;;;;;;2.45;1.58;;;;;;;;;;5064926;28;20036;-57
2022/06/20 13:47:11;;;;;;;1.20;1.10;;;;;;;;;;5063473;28;20028;-58
2022/06/20 13:49:47;;;;;;;2.60;1.05;;;;;;;;;;5051927;28;20042;-58
2022/06/20 13:52:32;;;;;;;1.73;1.10;;;;;;;;;;5059135;28;21300;-58
2022/06/20 13:55:06;;;;;;;3.20;1.30;;;;;;;;;;5051335;28;20059;-58
2022/06/20 13:57:52;;;;;;;2.53;1.30;;;;;;;;;;5062137;28;20110;-58
2022/06/20 14:00:27;;;;;;;2.38;1.40;;;;;;;;;;5062110;28;20032;-58
2022/06/20 14:03:11;;;;;;;2.65;1.30;;;;;;;;;;5062085;28;20040;-58
2022/06/20 14:05:39;;;;;;;2.97;1.50;;;;;;;;;;5057733;28;20057;-58
2022/06/20 14:08:15;;;;;;;2.45;1.52;;;;;;;;;;5042228;28;20025;-58
2022/06/20 14:10:49;;;;;;;2.78;1.50;;;;;;;;;;5044021;28;20025;-58
2022/06/20 14:13:41;;;;;;;4.50;1.50;;;;;;;;;;5043613;28;20458;-58
2022/06/20 14:16:20;;;;;;;2.28;1.35;;;;;;;;;;5055445;28;20090;-58
2022/06/20 14:18:50;;;;;;;2.75;1.30;;;;;;;;;;5063494;28;20456;-58
2022/06/20 14:21:16;;;;;;;1.83;1.35;;;;;;;;;;5063916;28;20074;-57
2022/06/20 14:23:47;;;;;;;1.98;1.20;;;;;;;;;;5063473;28;20551;-57
2022/06/20 14:26:24;;;;;;;1.55;1.30;;;;;;;;;;5048482;28;20076;-57
2022/06/20 14:28:50;;;;;;;2.08;1.52;;;;;;;;;;5043802;28;20037;-57
2022/06/20 14:31:31;;;;;;;4.05;1.42;;;;;;;;;;5058874;28;20028;-58
2022/06/20 14:34:01;;;;;;;2.92;1.60;;;;;;;;;;5063560;28;20054;-58
2022/06/20 14:36:36;;;;;;;5.70;1.50;;;;;;;;;;5061526;28;20029;-58
2022/06/20 14:39:12;;;;;;;4.05;1.60;;;;;;;;;;5059082;28;20297;-58
2022/06/20 14:41:41;;;;;;;5.07;1.90;;;;;;;;;;5066396;28;20028;-57
2022/06/20 14:44:27;;;;;;;1.85;1.30;;;;;;;;;;5065851;28;20025;-58
2022/06/20 14:46:56;;;;;;;3.90;1.48;;;;;;;;;;5067068;28;20104;-58
2022/06/20 14:49:34;;;;;;;2.38;1.35;;;;;;;;;;5067064;28;20028;-58
2022/06/20 14:52:06;;;;;;;4.57;1.42;;;;;;;;;;5045532;28;20062;-58
2022/06/20 14:54:55;;;;;;;3.58;1.50;;;;;;;;;;5047026;28;20426;-57
2022/06/20 14:57:41;;;;;;;6.78;1.85;;;;;;;;;;5063189;28;20047;-58
2022/06/20 15:00:17;;;;;;;4.28;1.80;;;;;;;;;;5065889;28;20031;-57
2022/06/20 15:03:06;;;;;;;1.80;1.48;;;;;;;;;;5073718;28;20127;-58
2022/06/20 15:05:38;;;;;;;6.25;1.70;;;;;;;;;;5082672;28;20032;-57
2022/06/20 15:08:10;;;;;;;5.28;1.38;;;;;;;;;;5059732;28;20037;-57
2022/06/20 15:10:45;;;;;;;3.80;1.70;;;;;;;;;;5072976;28;20071;-57
2022/06/20 15:13:21;;;;;;;2.80;1.50;;;;;;;;;;5062152;28;20021;-57
2022/06/20 15:15:48;;;;;;;3.45;1.45;;;;;;;;;;5077468;28;20028;-57
2022/06/20 15:18:42;;;;;;;1.45;1.35;;;;;;;;;;5074687;28;20031;-58
2022/06/20 15:21:14;;;;;;;2.55;1.25;;;;;;;;;;5074754;28;20027;-58
2022/06/20 15:23:40;;;;;;;3.25;1.13;;;;;;;;;;5068388;28;20910;-57
2022/06/20 15:26:27;;;;;;;2.45;1.17;;;;;;;;;;5078736;28;20174;-57